メインページ
METAR-TAF:

METAR-TAF

空港 :

ストックホルム・アーランダ, スウェーデン

ストックホルム・アーランダ空港

緯度: 59-39N, 経度: 017-57E, 海抜: 38m

現時点の気象観測

当レポートは31分前の11:20(UTC)に作成
の風 7kt、西から北/北東の間で変化する
気温 20°C
湿度 37%
気圧 1012 hPa
視程10km以上
1,500メートル以下は雲なし、積乱雲なし

METAR: ESSA 241120Z 36007KT 270V030 CAVOK 20/05 Q1012 NOSIG

時間: 13:51 (11:51 UTC)

予報

当レポートは21分前の11:30(UTC)に作成
予報は24日の 12時(UTC)から 25日の 12時(UTC)まで有効
の風 6kt
視程10km以上
1,500メートル以下は雲なし、積乱雲なし
確率 40%
24日の 16時(UTC)から 24日の 19時(UTC)まで
南東の風 10kt

TAF: ESSA 241130Z 2412/2512 35006KT CAVOK PROB40 2416/2419 13010KT

4,000以上の空港の気象観測と天気予報(METAR報とTAF報)

利用可能な観測所は地図上に黄色い丸と赤い丸で示す。

丸の上にカーソルを重ねると観測所名を参照できる。

次にクリックすると気象観測と天気予報を参照できる。

マップの切り替え:黒色「×」印の緑ボタンをクリックして拡大、「-」印の緑ボタンをクリックして縮小、緑色の三角印をクリックして隣りの地図に切り替え


METAR-TAF: